Time,TemperatureF,DewpointF,PressureIn,WindDirection,WindDirectionDegrees,WindSpeedMPH,WindSpeedGustMPH,Humidity,HourlyPrecipIn,Conditions,Clouds,dailyrainin,SoftwareType,DateUTC
2013-06-23 00:01:00,69.0,59.0,-100.00,South,180,7.0,9.0,68,-99.99,,,-99.99,,2013-06-23 04:01:00,
2013-06-23 00:11:00,69.0,59.0,-100.00,South,180,7.0,9.0,68,-99.99,,,-99.99,,2013-06-23 04:11:00,
2013-06-23 00:21:00,70.0,57.0,-100.00,SSW,200,7.0,11.0,64,-99.99,,,-99.99,,2013-06-23 04:21:00,
2013-06-23 00:31:00,70.0,57.0,-100.00,SSW,200,7.0,11.0,64,-99.99,,,-99.99,,2013-06-23 04:31:00,
2013-06-23 00:42:00,70.0,57.0,-100.00,SSW,200,7.0,11.0,64,-99.99,,,-99.99,,2013-06-23 04:42:00,
2013-06-23 00:51:00,70.0,58.0,-100.00,SSW,210,9.0,9.0,64,-99.99,,,-99.99,,2013-06-23 04:51:00,
2013-06-23 01:01:00,70.0,58.0,-100.00,SSW,210,9.0,9.0,64,-99.99,,,-99.99,,2013-06-23 05:01:00,
2013-06-23 01:10:00,70.0,58.0,-100.00,SSW,210,9.0,9.0,64,-99.99,,,-99.99,,2013-06-23 05:10:00,
2013-06-23 01:21:00,70.0,59.0,-100.00,SSW,200,11.0,13.0,67,-99.99,,,-99.99,,2013-06-23 05:21:00,
2013-06-23 01:31:00,70.0,59.0,-100.00,SSW,200,11.0,13.0,67,-99.99,,,-99.99,,2013-06-23 05:31:00,
2013-06-23 01:41:00,70.0,59.0,-100.00,SSW,200,11.0,13.0,67,-99.99,,,-99.99,,2013-06-23 05:41:00,
2013-06-23 02:22:00,70.0,61.0,-100.00,SSW,210,7.0,9.0,73,-99.99,,,-99.99,,2013-06-23 06:22:00,
2013-06-23 02:32:00,70.0,61.0,-100.00,SSW,210,7.0,9.0,73,-99.99,,,-99.99,,2013-06-23 06:32:00,
2013-06-23 02:43:00,70.0,61.0,-100.00,SSW,210,7.0,9.0,73,-99.99,,,-99.99,,2013-06-23 06:43:00,
2013-06-23 02:52:00,70.0,62.0,-100.00,SW,230,4.0,7.0,76,-99.99,,,-99.99,,2013-06-23 06:52:00,
2013-06-23 03:02:00,70.0,62.0,-100.00,SW,230,4.0,7.0,76,-99.99,,,-99.99,,2013-06-23 07:02:00,
2013-06-23 03:12:00,70.0,62.0,-100.00,SW,230,4.0,7.0,76,-99.99,,,-99.99,,2013-06-23 07:12:00,
2013-06-23 03:33:00,69.0,63.0,-100.00,WSW,250,2.0,4.0,81,-99.99,,,-99.99,,2013-06-23 07:33:00,
2013-06-23 03:42:00,69.0,63.0,-100.00,WSW,250,2.0,4.0,81,-99.99,,,-99.99,,2013-06-23 07:42:00,
2013-06-23 03:53:00,69.0,63.0,-100.00,SW,230,4.0,4.0,83,-99.99,,,-99.99,,2013-06-23 07:53:00,
2013-06-23 04:02:00,69.0,63.0,-100.00,SW,230,4.0,4.0,83,-99.99,,,-99.99,,2013-06-23 08:02:00,
2013-06-23 04:11:00,69.0,63.0,-100.00,SW,230,4.0,4.0,83,-99.99,,,-99.99,,2013-06-23 08:11:00,
2013-06-23 04:22:00,69.0,63.0,-100.00,WSW,240,4.0,7.0,79,-99.99,,,-99.99,,2013-06-23 08:22:00,
2013-06-23 04:33:00,69.0,63.0,-100.00,WSW,240,4.0,7.0,79,-99.99,,,-99.99,,2013-06-23 08:33:00,
2013-06-23 04:42:00,69.0,63.0,-100.00,WSW,240,4.0,7.0,79,-99.99,,,-99.99,,2013-06-23 08:42:00,
2013-06-23 04:53:00,69.0,62.0,-100.00,SSW,210,9.0,9.0,77,-99.99,,,-99.99,,2013-06-23 08:53:00,
2013-06-23 05:02:00,69.0,62.0,-100.00,SSW,210,9.0,9.0,77,-99.99,,,-99.99,,2013-06-23 09:02:00,
2013-06-23 05:12:00,69.0,62.0,-100.00,SSW,210,9.0,9.0,77,-99.99,,,-99.99,,2013-06-23 09:12:00,
2013-06-23 05:22:00,69.0,62.0,-100.00,SW,220,7.0,9.0,77,-99.99,,,-99.99,,2013-06-23 09:22:00,
2013-06-23 05:34:00,69.0,62.0,-100.00,SW,220,7.0,9.0,77,-99.99,,,-99.99,,2013-06-23 09:34:00,
2013-06-23 05:43:00,69.0,62.0,-100.00,SW,220,7.0,9.0,77,-99.99,,,-99.99,,2013-06-23 09:43:00,
2013-06-23 05:53:00,69.0,62.0,-100.00,WSW,250,4.0,4.0,79,-99.99,,,-99.99,,2013-06-23 09:53:00,
2013-06-23 06:02:00,69.0,62.0,-100.00,WSW,250,4.0,4.0,79,-99.99,,,-99.99,,2013-06-23 10:02:00,
2013-06-23 06:11:00,69.0,62.0,-100.00,WSW,250,4.0,4.0,79,-99.99,,,-99.99,,2013-06-23 10:11:00,
2013-06-23 06:22:00,69.0,63.0,-100.00,SW,220,4.0,7.0,80,-99.99,,,-99.99,,2013-06-23 10:22:00,
2013-06-23 06:34:00,69.0,63.0,-100.00,SW,220,4.0,7.0,80,-99.99,,,-99.99,,2013-06-23 10:34:00,
2013-06-23 06:43:00,69.0,63.0,-100.00,SW,220,4.0,7.0,80,-99.99,,,-99.99,,2013-06-23 10:43:00,
2013-06-23 06:52:00,69.0,63.0,-100.00,SSW,210,7.0,9.0,79,-99.99,,,-99.99,,2013-06-23 10:52:00,
2013-06-23 07:01:00,69.0,63.0,-100.00,SSW,210,7.0,9.0,79,-99.99,,,-99.99,,2013-06-23 11:01:00,
2013-06-23 07:11:00,69.0,63.0,-100.00,SSW,210,7.0,9.0,79,-99.99,,,-99.99,,2013-06-23 11:11:00,
2013-06-23 07:22:00,69.0,63.0,-100.00,SSW,210,7.0,7.0,80,-99.99,,,-99.99,,2013-06-23 11:22:00,
2013-06-23 07:33:00,69.0,63.0,-100.00,SSW,210,7.0,7.0,80,-99.99,,,-99.99,,2013-06-23 11:33:00,
2013-06-23 07:43:00,69.0,63.0,-100.00,SSW,210,7.0,7.0,80,-99.99,,,-99.99,,2013-06-23 11:43:00,
2013-06-23 07:53:00,70.0,64.0,-100.00,SSW,210,4.0,7.0,81,-99.99,,,-99.99,,2013-06-23 11:53:00,
2013-06-23 08:01:00,70.0,64.0,-100.00,SSW,210,4.0,7.0,81,-99.99,,,-99.99,,2013-06-23 12:01:00,
2013-06-23 08:11:00,70.0,64.0,-100.00,SSW,210,4.0,7.0,81,-99.99,,,-99.99,,2013-06-23 12:11:00,
2013-06-23 08:22:00,70.0,64.0,-100.00,SW,220,9.0,9.0,81,-99.99,,,-99.99,,2013-06-23 12:22:00,
2013-06-23 08:33:00,70.0,64.0,-100.00,SW,220,9.0,9.0,81,-99.99,,,-99.99,,2013-06-23 12:33:00,
2013-06-23 08:42:00,70.0,64.0,-100.00,SW,220,9.0,9.0,81,-99.99,,,-99.99,,2013-06-23 12:42:00,
2013-06-23 08:53:00,71.0,64.0,-100.00,SW,220,9.0,11.0,80,-99.99,,,-99.99,,2013-06-23 12:53:00,
2013-06-23 09:01:00,71.0,64.0,-100.00,SW,220,9.0,11.0,80,-99.99,,,-99.99,,2013-06-23 13:01:00,
2013-06-23 09:11:00,71.0,64.0,-100.00,SW,220,9.0,11.0,80,-99.99,,,-99.99,,2013-06-23 13:11:00,
2013-06-23 09:33:00,71.0,65.0,-100.00,SW,220,9.0,11.0,80,-99.99,,,-99.99,,2013-06-23 13:33:00,
2013-06-23 09:43:00,71.0,65.0,-100.00,SW,220,9.0,11.0,80,-99.99,,,-99.99,,2013-06-23 13:43:00,
2013-06-23 09:53:00,71.0,65.0,-100.00,SSW,210,4.0,7.0,81,-99.99,,,-99.99,,2013-06-23 13:53:00,
2013-06-23 10:04:00,71.0,65.0,-100.00,SSW,210,4.0,7.0,81,-99.99,,,-99.99,,2013-06-23 14:04:00,
2013-06-23 10:11:00,71.0,65.0,-100.00,SSW,210,4.0,7.0,81,-99.99,,,-99.99,,2013-06-23 14:11:00,
2013-06-23 10:33:00,72.0,66.0,-100.00,SW,220,4.0,4.0,82,-99.99,,,-99.99,,2013-06-23 14:33:00,
2013-06-23 10:44:00,72.0,66.0,-100.00,SW,220,4.0,4.0,82,-99.99,,,-99.99,,2013-06-23 14:44:00,
2013-06-23 10:52:00,73.0,66.0,-100.00,SSW,200,7.0,7.0,79,-99.99,,,-99.99,,2013-06-23 14:52:00,
2013-06-23 11:05:00,73.0,66.0,-100.00,SSW,200,7.0,7.0,79,-99.99,,,-99.99,,2013-06-23 15:05:00,
2013-06-23 11:11:00,73.0,66.0,-100.00,SSW,200,7.0,7.0,79,-99.99,,,-99.99,,2013-06-23 15:11:00,
2013-06-23 11:22:00,74.0,66.0,-100.00,SSW,210,9.0,9.0,75,-99.99,,,-99.99,,2013-06-23 15:22:00,
2013-06-23 11:34:00,74.0,66.0,-100.00,SSW,210,9.0,9.0,75,-99.99,,,-99.99,,2013-06-23 15:34:00,
2013-06-23 11:43:00,74.0,66.0,-100.00,SSW,210,9.0,9.0,75,-99.99,,,-99.99,,2013-06-23 15:43:00,
2013-06-23 11:52:00,76.0,65.0,-100.00,SSW,210,9.0,9.0,70,-99.99,,,-99.99,,2013-06-23 15:52:00,
2013-06-23 12:11:00,76.0,65.0,-100.00,SSW,210,9.0,9.0,70,-99.99,,,-99.99,,2013-06-23 16:11:00,
2013-06-23 12:34:00,76.0,66.0,-100.00,SSW,210,9.0,9.0,71,-99.99,,,-99.99,,2013-06-23 16:34:00,
2013-06-23 12:42:00,76.0,66.0,-100.00,SSW,210,9.0,9.0,71,-99.99,,,-99.99,,2013-06-23 16:42:00,
2013-06-23 12:52:00,76.0,66.0,-100.00,SSW,210,9.0,11.0,69,-99.99,,,-99.99,,2013-06-23 16:52:00,
2013-06-23 13:01:00,76.0,66.0,-100.00,SSW,210,9.0,11.0,69,-99.99,,,-99.99,,2013-06-23 17:01:00,
2013-06-23 13:11:00,76.0,66.0,-100.00,SSW,210,9.0,11.0,69,-99.99,,,-99.99,,2013-06-23 17:11:00,
2013-06-23 13:33:00,77.0,66.0,-100.00,SSW,210,9.0,11.0,68,-99.99,,,-99.99,,2013-06-23 17:33:00,
2013-06-23 13:43:00,77.0,66.0,-100.00,SSW,210,9.0,11.0,68,-99.99,,,-99.99,,2013-06-23 17:43:00,
2013-06-23 13:52:00,78.0,67.0,-100.00,SSW,200,9.0,11.0,69,-99.99,,,-99.99,,2013-06-23 17:52:00,
2013-06-23 14:01:00,78.0,67.0,-100.00,SSW,200,9.0,11.0,69,-99.99,,,-99.99,,2013-06-23 18:01:00,
2013-06-23 14:11:00,78.0,67.0,-100.00,SSW,200,9.0,11.0,69,-99.99,,,-99.99,,2013-06-23 18:11:00,
2013-06-23 14:33:00,77.0,67.0,-100.00,SSW,210,9.0,11.0,71,-99.99,,,-99.99,,2013-06-23 18:33:00,
2013-06-23 14:53:00,78.0,68.0,-100.00,SSW,210,13.0,16.0,69,-99.99,,,-99.99,,2013-06-23 18:53:00,
2013-06-23 15:01:00,78.0,68.0,-100.00,SSW,210,13.0,16.0,69,-99.99,,,-99.99,,2013-06-23 19:01:00,
2013-06-23 15:11:00,78.0,68.0,-100.00,SSW,210,13.0,16.0,69,-99.99,,,-99.99,,2013-06-23 19:11:00,
2013-06-23 15:32:00,79.0,68.0,-100.00,South,190,13.0,18.0,68,-99.99,,,-99.99,,2013-06-23 19:32:00,
2013-06-23 15:43:00,79.0,68.0,-100.00,South,190,13.0,18.0,68,-99.99,,,-99.99,,2013-06-23 19:43:00,
2013-06-23 15:53:00,79.0,68.0,-100.00,South,190,13.0,16.0,69,-99.99,,,-99.99,,2013-06-23 19:53:00,
2013-06-23 16:01:00,79.0,68.0,-100.00,South,190,13.0,16.0,69,-99.99,,,-99.99,,2013-06-23 20:01:00,
2013-06-23 16:11:00,79.0,68.0,-100.00,South,190,13.0,16.0,69,-99.99,,,-99.99,,2013-06-23 20:11:00,
2013-06-23 16:23:00,78.0,68.0,-100.00,South,180,13.0,18.0,70,-99.99,,,-99.99,,2013-06-23 20:23:00,
2013-06-23 16:33:00,78.0,68.0,-100.00,South,180,13.0,18.0,70,-99.99,,,-99.99,,2013-06-23 20:33:00,
2013-06-23 16:42:00,78.0,68.0,-100.00,South,180,13.0,18.0,70,-99.99,,,-99.99,,2013-06-23 20:42:00,
2013-06-23 16:52:00,78.0,68.0,-100.00,South,180,16.0,18.0,71,-99.99,,,-99.99,,2013-06-23 20:52:00,
2013-06-23 17:01:00,78.0,68.0,-100.00,South,180,16.0,18.0,71,-99.99,,,-99.99,,2013-06-23 21:01:00,
2013-06-23 17:11:00,78.0,68.0,-100.00,South,180,16.0,18.0,71,-99.99,,,-99.99,,2013-06-23 21:11:00,
2013-06-23 17:22:00,78.0,69.0,-100.00,South,190,16.0,18.0,74,-99.99,,,-99.99,,2013-06-23 21:22:00,
2013-06-23 17:33:00,78.0,69.0,-100.00,South,190,16.0,18.0,74,-99.99,,,-99.99,,2013-06-23 21:33:00,
2013-06-23 17:43:00,78.0,69.0,-100.00,South,190,16.0,18.0,74,-99.99,,,-99.99,,2013-06-23 21:43:00,
2013-06-23 17:52:00,78.0,69.0,-100.00,SSW,200,16.0,20.0,75,-99.99,,,-99.99,,2013-06-23 21:52:00,
2013-06-23 18:01:00,78.0,69.0,-100.00,SSW,200,16.0,20.0,75,-99.99,,,-99.99,,2013-06-23 22:01:00,
2013-06-23 18:11:00,78.0,69.0,-100.00,SSW,200,16.0,20.0,75,-99.99,,,-99.99,,2013-06-23 22:11:00,
2013-06-23 18:32:00,78.0,67.0,-100.00,SSW,200,16.0,20.0,69,-99.99,,,-99.99,,2013-06-23 22:32:00,
2013-06-23 18:43:00,78.0,67.0,-100.00,SSW,200,16.0,20.0,69,-99.99,,,-99.99,,2013-06-23 22:43:00,
2013-06-23 18:53:00,77.0,69.0,-100.00,South,190,16.0,20.0,75,-99.99,,,-99.99,,2013-06-23 22:53:00,
2013-06-23 19:01:00,77.0,69.0,-100.00,South,190,16.0,20.0,75,-99.99,,,-99.99,,2013-06-23 23:01:00,
2013-06-23 19:11:00,77.0,69.0,-100.00,South,190,16.0,20.0,75,-99.99,,,-99.99,,2013-06-23 23:11:00,
2013-06-23 19:22:00,77.0,69.0,-100.00,South,190,16.0,18.0,75,-99.99,,,-99.99,,2013-06-23 23:22:00,
2013-06-23 19:33:00,77.0,69.0,-100.00,South,190,16.0,18.0,75,-99.99,,,-99.99,,2013-06-23 23:33:00,
2013-06-23 19:44:00,77.0,69.0,-100.00,South,190,16.0,18.0,75,-99.99,,,-99.99,,2013-06-23 23:44:00,
2013-06-23 19:52:00,76.0,68.0,-100.00,South,190,16.0,20.0,76,-99.99,,,-99.99,,2013-06-23 23:52:00,
2013-06-23 20:01:00,76.0,68.0,-100.00,South,190,16.0,20.0,76,-99.99,,,-99.99,,2013-06-24 00:01:00,
2013-06-23 20:11:00,76.0,68.0,-100.00,South,190,16.0,20.0,76,-99.99,,,-99.99,,2013-06-24 00:11:00,
2013-06-23 20:52:00,76.0,69.0,-100.00,South,190,16.0,20.0,78,-99.99,,,-99.99,,2013-06-24 00:52:00,
2013-06-23 21:01:00,76.0,69.0,-100.00,South,190,16.0,20.0,78,-99.99,,,-99.99,,2013-06-24 01:01:00,
2013-06-23 21:11:00,76.0,69.0,-100.00,South,190,16.0,20.0,78,-99.99,,,-99.99,,2013-06-24 01:11:00,
2013-06-23 21:21:00,74.0,69.0,-100.00,South,180,13.0,18.0,83,-99.99,,,-99.99,,2013-06-24 01:21:00,
2013-06-23 21:32:00,74.0,69.0,-100.00,South,180,13.0,18.0,83,-99.99,,,-99.99,,2013-06-24 01:32:00,
2013-06-23 21:42:00,74.0,69.0,-100.00,South,180,13.0,18.0,83,-99.99,,,-99.99,,2013-06-24 01:42:00,
2013-06-23 21:52:00,74.0,69.0,-100.00,South,190,13.0,16.0,86,-99.99,,,-99.99,,2013-06-24 01:52:00,
2013-06-23 22:01:00,74.0,69.0,-100.00,South,190,13.0,16.0,86,-99.99,,,-99.99,,2013-06-24 02:01:00,
2013-06-23 22:11:00,74.0,69.0,-100.00,South,190,13.0,16.0,86,-99.99,,,-99.99,,2013-06-24 02:11:00,
2013-06-23 22:33:00,73.0,69.0,-100.00,South,190,13.0,16.0,87,-99.99,,,-99.99,,2013-06-24 02:33:00,
2013-06-23 22:42:00,73.0,69.0,-100.00,South,190,13.0,16.0,87,-99.99,,,-99.99,,2013-06-24 02:42:00,
2013-06-23 22:52:00,73.0,69.0,-100.00,SSW,200,11.0,13.0,89,-99.99,,,-99.99,,2013-06-24 02:52:00,
2013-06-23 23:01:00,73.0,69.0,-100.00,SSW,200,11.0,13.0,89,-99.99,,,-99.99,,2013-06-24 03:01:00,
2013-06-23 23:11:00,73.0,69.0,-100.00,SSW,200,11.0,13.0,89,-99.99,,,-99.99,,2013-06-24 03:11:00,
2013-06-23 23:21:00,72.0,69.0,-100.00,SSW,210,9.0,11.0,90,-99.99,,,-99.99,,2013-06-24 03:21:00,
2013-06-23 23:33:00,72.0,69.0,-100.00,SSW,210,9.0,11.0,90,-99.99,,,-99.99,,2013-06-24 03:33:00,
2013-06-23 23:42:00,72.0,69.0,-100.00,SSW,210,9.0,11.0,90,-99.99,,,-99.99,,2013-06-24 03:42:00,
2013-06-23 23:53:00,72.0,69.0,-100.00,SSW,200,4.0,7.0,90,-99.99,,,-99.99,,2013-06-24 03:53:00,